sensor_id;sensor_type;location;lat;lon;timestamp;temperature;humidity
13976;DHT22;7062;49.792;9.946;2022-10-01T00:00:34;10.00;99.90
13976;DHT22;7062;49.792;9.946;2022-10-01T00:03:00;9.90;99.90
13976;DHT22;7062;49.792;9.946;2022-10-01T00:05:26;9.90;99.90
13976;DHT22;7062;49.792;9.946;2022-10-01T00:07:52;9.70;99.90
13976;DHT22;7062;49.792;9.946;2022-10-01T00:10:17;9.60;99.90
13976;DHT22;7062;49.792;9.946;2022-10-01T00:12:47;9.70;99.90
13976;DHT22;7062;49.792;9.946;2022-10-01T00:15:14;9.70;99.90
13976;DHT22;7062;49.792;9.946;2022-10-01T00:17:41;9.70;99.90
13976;DHT22;7062;49.792;9.946;2022-10-01T00:20:08;9.80;99.90
13976;DHT22;7062;49.792;9.946;2022-10-01T00:22:35;9.80;99.90
13976;DHT22;7062;49.792;9.946;2022-10-01T00:25:02;9.90;99.90
13976;DHT22;7062;49.792;9.946;2022-10-01T00:27:28;9.90;99.90
13976;DHT22;7062;49.792;9.946;2022-10-01T00:29:54;9.90;99.90
13976;DHT22;7062;49.792;9.946;2022-10-01T00:32:21;9.80;99.90
13976;DHT22;7062;49.792;9.946;2022-10-01T00:34:47;9.80;99.90
13976;DHT22;7062;49.792;9.946;2022-10-01T00:37:14;9.80;99.90
13976;DHT22;7062;49.792;9.946;2022-10-01T00:39:40;9.80;99.90
13976;DHT22;7062;49.792;9.946;2022-10-01T00:42:16;9.80;99.90
13976;DHT22;7062;49.792;9.946;2022-10-01T00:44:43;9.90;99.90
13976;DHT22;7062;49.792;9.946;2022-10-01T00:49:39;9.90;99.90
13976;DHT22;7062;49.792;9.946;2022-10-01T00:52:09;9.90;99.90
13976;DHT22;7062;49.792;9.946;2022-10-01T00:54:42;9.90;99.90
13976;DHT22;7062;49.792;9.946;2022-10-01T00:57:09;9.90;99.90
13976;DHT22;7062;49.792;9.946;2022-10-01T00:59:36;9.90;99.90
13976;DHT22;7062;49.792;9.946;2022-10-01T01:02:02;9.80;99.90
13976;DHT22;7062;49.792;9.946;2022-10-01T01:04:27;9.80;99.90
13976;DHT22;7062;49.792;9.946;2022-10-01T01:06:56;9.70;99.90
13976;DHT22;7062;49.792;9.946;2022-10-01T01:09:30;9.70;99.90
13976;DHT22;7062;49.792;9.946;2022-10-01T01:17:13;9.60;99.90
13976;DHT22;7062;49.792;9.946;2022-10-01T01:22:31;9.60;99.90
13976;DHT22;7062;49.792;9.946;2022-10-01T01:25:30;9.50;99.90
13976;DHT22;7062;49.792;9.946;2022-10-01T01:31:03;9.50;99.90
13976;DHT22;7062;49.792;9.946;2022-10-01T01:33:31;9.50;99.90
13976;DHT22;7062;49.792;9.946;2022-10-01T01:36:09;9.60;99.90
13976;DHT22;7062;49.792;9.946;2022-10-01T01:38:42;9.70;99.90
13976;DHT22;7062;49.792;9.946;2022-10-01T01:41:10;9.60;99.90
13976;DHT22;7062;49.792;9.946;2022-10-01T01:43:40;9.70;99.90
13976;DHT22;7062;49.792;9.946;2022-10-01T01:46:08;9.70;99.90
13976;DHT22;7062;49.792;9.946;2022-10-01T01:48:38;9.70;99.90
13976;DHT22;7062;49.792;9.946;2022-10-01T01:53:53;9.70;99.90
13976;DHT22;7062;49.792;9.946;2022-10-01T01:56:19;9.70;99.90
13976;DHT22;7062;49.792;9.946;2022-10-01T01:58:44;9.70;99.90
13976;DHT22;7062;49.792;9.946;2022-10-01T02:01:43;9.70;99.90
13976;DHT22;7062;49.792;9.946;2022-10-01T02:19:07;9.60;99.90
13976;DHT22;7062;49.792;9.946;2022-10-01T02:21:39;9.50;99.90
13976;DHT22;7062;49.792;9.946;2022-10-01T02:24:13;9.50;99.90
13976;DHT22;7062;49.792;9.946;2022-10-01T02:26:47;9.50;99.90
13976;DHT22;7062;49.792;9.946;2022-10-01T02:29:16;9.50;99.90
13976;DHT22;7062;49.792;9.946;2022-10-01T02:31:44;9.60;99.90
13976;DHT22;7062;49.792;9.946;2022-10-01T02:34:12;9.70;99.90
13976;DHT22;7062;49.792;9.946;2022-10-01T02:36:41;9.80;99.90
13976;DHT22;7062;49.792;9.946;2022-10-01T02:39:11;9.80;99.90
13976;DHT22;7062;49.792;9.946;2022-10-01T02:41:40;9.70;99.90
13976;DHT22;7062;49.792;9.946;2022-10-01T02:44:11;9.70;99.90
13976;DHT22;7062;49.792;9.946;2022-10-01T02:49:25;9.60;99.90
13976;DHT22;7062;49.792;9.946;2022-10-01T02:51:59;9.60;99.90
13976;DHT22;7062;49.792;9.946;2022-10-01T02:54:30;9.70;99.90
13976;DHT22;7062;49.792;9.946;2022-10-01T02:56:59;9.60;99.90
13976;DHT22;7062;49.792;9.946;2022-10-01T02:59:43;9.60;99.90
13976;DHT22;7062;49.792;9.946;2022-10-01T03:02:10;9.70;99.90
13976;DHT22;7062;49.792;9.946;2022-10-01T03:04:36;9.80;99.90
13976;DHT22;7062;49.792;9.946;2022-10-01T03:07:02;9.70;99.90
13976;DHT22;7062;49.792;9.946;2022-10-01T03:09:33;9.80;99.90
13976;DHT22;7062;49.792;9.946;2022-10-01T03:12:01;9.80;99.90
13976;DHT22;7062;49.792;9.946;2022-10-01T03:14:27;9.80;99.90
13976;DHT22;7062;49.792;9.946;2022-10-01T03:16:53;9.80;99.90
13976;DHT22;7062;49.792;9.946;2022-10-01T03:19:19;9.80;99.90
13976;DHT22;7062;49.792;9.946;2022-10-01T03:21:46;10.00;99.90
13976;DHT22;7062;49.792;9.946;2022-10-01T03:24:12;10.10;99.90
13976;DHT22;7062;49.792;9.946;2022-10-01T03:26:38;10.10;99.90
13976;DHT22;7062;49.792;9.946;2022-10-01T03:29:04;10.20;99.90
13976;DHT22;7062;49.792;9.946;2022-10-01T03:31:30;10.20;99.90
13976;DHT22;7062;49.792;9.946;2022-10-01T03:33:55;10.10;99.90
13976;DHT22;7062;49.792;9.946;2022-10-01T03:36:28;10.10;99.90
13976;DHT22;7062;49.792;9.946;2022-10-01T03:38:54;10.10;99.90
13976;DHT22;7062;49.792;9.946;2022-10-01T03:41:20;10.10;99.90
13976;DHT22;7062;49.792;9.946;2022-10-01T03:43:46;10.10;99.90
13976;DHT22;7062;49.792;9.946;2022-10-01T03:46:12;10.10;99.90
13976;DHT22;7062;49.792;9.946;2022-10-01T03:48:37;10.10;99.90
13976;DHT22;7062;49.792;9.946;2022-10-01T03:51:03;10.20;99.90
13976;DHT22;7062;49.792;9.946;2022-10-01T03:53:30;10.20;99.90
13976;DHT22;7062;49.792;9.946;2022-10-01T03:55:57;10.20;99.90
13976;DHT22;7062;49.792;9.946;2022-10-01T03:58:23;10.20;99.90
13976;DHT22;7062;49.792;9.946;2022-10-01T04:00:49;10.20;99.90
13976;DHT22;7062;49.792;9.946;2022-10-01T04:03:15;10.10;99.90
13976;DHT22;7062;49.792;9.946;2022-10-01T04:05:42;10.10;99.90
13976;DHT22;7062;49.792;9.946;2022-10-01T04:08:09;10.10;99.90
13976;DHT22;7062;49.792;9.946;2022-10-01T04:10:35;10.10;99.90
13976;DHT22;7062;49.792;9.946;2022-10-01T04:13:01;10.10;99.90
13976;DHT22;7062;49.792;9.946;2022-10-01T04:15:26;10.10;99.90
13976;DHT22;7062;49.792;9.946;2022-10-01T04:17:52;10.10;99.90
13976;DHT22;7062;49.792;9.946;2022-10-01T04:20:18;10.20;99.90
13976;DHT22;7062;49.792;9.946;2022-10-01T04:22:44;10.00;99.90
13976;DHT22;7062;49.792;9.946;2022-10-01T04:25:11;10.00;99.90
13976;DHT22;7062;49.792;9.946;2022-10-01T04:27:41;9.90;99.90
13976;DHT22;7062;49.792;9.946;2022-10-01T04:30:08;10.00;99.90
13976;DHT22;7062;49.792;9.946;2022-10-01T04:32:34;10.00;99.90
13976;DHT22;7062;49.792;9.946;2022-10-01T04:35:01;10.10;99.90
13976;DHT22;7062;49.792;9.946;2022-10-01T04:37:29;10.10;99.90
13976;DHT22;7062;49.792;9.946;2022-10-01T04:39:55;10.10;99.90
13976;DHT22;7062;49.792;9.946;2022-10-01T04:42:21;10.10;99.90
13976;DHT22;7062;49.792;9.946;2022-10-01T04:44:47;10.20;99.90
13976;DHT22;7062;49.792;9.946;2022-10-01T04:47:13;10.20;99.90
13976;DHT22;7062;49.792;9.946;2022-10-01T04:49:38;10.20;99.90
13976;DHT22;7062;49.792;9.946;2022-10-01T04:52:04;10.20;99.90
13976;DHT22;7062;49.792;9.946;2022-10-01T04:54:30;10.20;99.90
13976;DHT22;7062;49.792;9.946;2022-10-01T04:56:56;10.20;99.90
13976;DHT22;7062;49.792;9.946;2022-10-01T04:59:25;10.20;99.90
13976;DHT22;7062;49.792;9.946;2022-10-01T05:01:51;10.30;99.90
13976;DHT22;7062;49.792;9.946;2022-10-01T05:04:17;10.20;99.90
13976;DHT22;7062;49.792;9.946;2022-10-01T05:06:42;10.20;99.90
13976;DHT22;7062;49.792;9.946;2022-10-01T05:09:08;10.30;99.90
13976;DHT22;7062;49.792;9.946;2022-10-01T05:11:34;10.30;99.90
13976;DHT22;7062;49.792;9.946;2022-10-01T05:14:00;10.40;99.90
13976;DHT22;7062;49.792;9.946;2022-10-01T05:16:25;10.40;99.90
13976;DHT22;7062;49.792;9.946;2022-10-01T05:18:51;10.50;99.90
13976;DHT22;7062;49.792;9.946;2022-10-01T05:21:17;10.50;99.90
13976;DHT22;7062;49.792;9.946;2022-10-01T05:23:43;10.60;99.90
13976;DHT22;7062;49.792;9.946;2022-10-01T05:26:09;10.60;99.90
13976;DHT22;7062;49.792;9.946;2022-10-01T05:28:35;10.60;99.90
13976;DHT22;7062;49.792;9.946;2022-10-01T05:31:01;10.60;99.90
13976;DHT22;7062;49.792;9.946;2022-10-01T05:33:28;10.60;99.90
13976;DHT22;7062;49.792;9.946;2022-10-01T05:35:55;10.60;99.90
13976;DHT22;7062;49.792;9.946;2022-10-01T05:38:21;10.60;99.90
13976;DHT22;7062;49.792;9.946;2022-10-01T05:40:47;10.60;99.90
13976;DHT22;7062;49.792;9.946;2022-10-01T05:43:14;10.60;99.90
13976;DHT22;7062;49.792;9.946;2022-10-01T05:45:40;10.60;99.90
13976;DHT22;7062;49.792;9.946;2022-10-01T05:48:07;10.70;99.90
13976;DHT22;7062;49.792;9.946;2022-10-01T05:50:36;10.60;99.90
13976;DHT22;7062;49.792;9.946;2022-10-01T05:53:05;10.60;99.90
13976;DHT22;7062;49.792;9.946;2022-10-01T05:55:31;10.60;99.90
13976;DHT22;7062;49.792;9.946;2022-10-01T05:58:01;10.70;99.90
13976;DHT22;7062;49.792;9.946;2022-10-01T06:00:27;10.70;99.90
13976;DHT22;7062;49.792;9.946;2022-10-01T06:02:55;10.70;99.90
13976;DHT22;7062;49.792;9.946;2022-10-01T06:05:21;10.70;99.90
13976;DHT22;7062;49.792;9.946;2022-10-01T06:07:48;10.70;99.90
13976;DHT22;7062;49.792;9.946;2022-10-01T06:10:14;10.60;99.90
13976;DHT22;7062;49.792;9.946;2022-10-01T06:12:40;10.70;99.90
13976;DHT22;7062;49.792;9.946;2022-10-01T06:15:08;10.70;99.90
13976;DHT22;7062;49.792;9.946;2022-10-01T06:17:33;10.70;99.90
13976;DHT22;7062;49.792;9.946;2022-10-01T06:19:59;10.80;99.90
13976;DHT22;7062;49.792;9.946;2022-10-01T06:22:25;10.80;99.90
13976;DHT22;7062;49.792;9.946;2022-10-01T06:24:51;10.80;99.90
13976;DHT22;7062;49.792;9.946;2022-10-01T06:27:16;10.80;99.90
13976;DHT22;7062;49.792;9.946;2022-10-01T06:29:43;10.80;99.90
13976;DHT22;7062;49.792;9.946;2022-10-01T06:32:08;10.80;99.90
13976;DHT22;7062;49.792;9.946;2022-10-01T06:34:38;10.80;99.90
13976;DHT22;7062;49.792;9.946;2022-10-01T06:37:04;10.80;99.90
13976;DHT22;7062;49.792;9.946;2022-10-01T06:39:30;10.70;99.90
13976;DHT22;7062;49.792;9.946;2022-10-01T06:41:55;10.80;99.90
13976;DHT22;7062;49.792;9.946;2022-10-01T06:44:21;10.70;99.90
13976;DHT22;7062;49.792;9.946;2022-10-01T06:46:46;10.80;99.90
13976;DHT22;7062;49.792;9.946;2022-10-01T06:49:12;10.80;99.90
13976;DHT22;7062;49.792;9.946;2022-10-01T06:51:38;10.80;99.90
13976;DHT22;7062;49.792;9.946;2022-10-01T06:54:22;10.80;99.90
13976;DHT22;7062;49.792;9.946;2022-10-01T06:56:47;10.80;99.90
13976;DHT22;7062;49.792;9.946;2022-10-01T06:59:13;10.80;99.90
13976;DHT22;7062;49.792;9.946;2022-10-01T07:01:39;10.80;99.90
13976;DHT22;7062;49.792;9.946;2022-10-01T07:04:04;10.80;99.90
13976;DHT22;7062;49.792;9.946;2022-10-01T07:06:30;10.80;99.90
13976;DHT22;7062;49.792;9.946;2022-10-01T07:08:56;10.70;99.90
13976;DHT22;7062;49.792;9.946;2022-10-01T07:11:23;10.80;99.90
13976;DHT22;7062;49.792;9.946;2022-10-01T07:13:49;10.80;99.90
13976;DHT22;7062;49.792;9.946;2022-10-01T07:16:15;10.80;99.90
13976;DHT22;7062;49.792;9.946;2022-10-01T07:18:40;10.80;99.90
13976;DHT22;7062;49.792;9.946;2022-10-01T07:21:06;10.80;99.90
13976;DHT22;7062;49.792;9.946;2022-10-01T07:23:32;10.80;99.90
13976;DHT22;7062;49.792;9.946;2022-10-01T07:25:57;10.80;99.90
13976;DHT22;7062;49.792;9.946;2022-10-01T07:28:23;10.80;99.90
13976;DHT22;7062;49.792;9.946;2022-10-01T07:31:01;10.80;99.90
13976;DHT22;7062;49.792;9.946;2022-10-01T07:33:28;10.70;99.90
13976;DHT22;7062;49.792;9.946;2022-10-01T07:35:54;10.70;99.90
13976;DHT22;7062;49.792;9.946;2022-10-01T07:38:19;10.70;99.90
13976;DHT22;7062;49.792;9.946;2022-10-01T07:40:52;10.70;99.90
13976;DHT22;7062;49.792;9.946;2022-10-01T07:43:19;10.70;99.90
13976;DHT22;7062;49.792;9.946;2022-10-01T07:45:45;10.80;99.90
13976;DHT22;7062;49.792;9.946;2022-10-01T07:48:14;10.80;99.90
13976;DHT22;7062;49.792;9.946;2022-10-01T07:50:42;10.70;99.90
13976;DHT22;7062;49.792;9.946;2022-10-01T07:53:09;10.70;99.90
13976;DHT22;7062;49.792;9.946;2022-10-01T07:55:36;10.80;99.90
13976;DHT22;7062;49.792;9.946;2022-10-01T07:58:02;10.80;99.90
13976;DHT22;7062;49.792;9.946;2022-10-01T08:00:29;10.70;99.90
13976;DHT22;7062;49.792;9.946;2022-10-01T08:02:55;10.70;99.90
13976;DHT22;7062;49.792;9.946;2022-10-01T08:05:29;10.70;99.90
13976;DHT22;7062;49.792;9.946;2022-10-01T08:08:04;10.70;99.90
13976;DHT22;7062;49.792;9.946;2022-10-01T08:10:30;10.70;99.90
13976;DHT22;7062;49.792;9.946;2022-10-01T08:13:00;10.90;99.90
13976;DHT22;7062;49.792;9.946;2022-10-01T08:15:26;10.90;99.90
13976;DHT22;7062;49.792;9.946;2022-10-01T08:17:53;10.90;99.90
13976;DHT22;7062;49.792;9.946;2022-10-01T08:20:19;10.90;99.90
13976;DHT22;7062;49.792;9.946;2022-10-01T08:22:45;10.90;99.90
13976;DHT22;7062;49.792;9.946;2022-10-01T08:25:11;10.90;99.90
13976;DHT22;7062;49.792;9.946;2022-10-01T08:27:37;10.90;99.90
13976;DHT22;7062;49.792;9.946;2022-10-01T08:30:03;10.90;99.90
13976;DHT22;7062;49.792;9.946;2022-10-01T08:32:29;10.90;99.90
13976;DHT22;7062;49.792;9.946;2022-10-01T08:34:55;10.90;99.90
13976;DHT22;7062;49.792;9.946;2022-10-01T08:37:28;11.00;99.90
13976;DHT22;7062;49.792;9.946;2022-10-01T08:39:54;11.00;99.90
13976;DHT22;7062;49.792;9.946;2022-10-01T08:45:00;11.10;99.90
13976;DHT22;7062;49.792;9.946;2022-10-01T08:47:37;11.00;99.90
13976;DHT22;7062;49.792;9.946;2022-10-01T08:50:22;11.00;99.90
13976;DHT22;7062;49.792;9.946;2022-10-01T08:52:52;11.00;99.90
13976;DHT22;7062;49.792;9.946;2022-10-01T08:55:22;11.00;99.90
13976;DHT22;7062;49.792;9.946;2022-10-01T08:57:58;11.10;99.90
13976;DHT22;7062;49.792;9.946;2022-10-01T09:00:25;11.10;99.90
13976;DHT22;7062;49.792;9.946;2022-10-01T09:02:51;11.10;99.90
13976;DHT22;7062;49.792;9.946;2022-10-01T09:14:17;11.20;99.90
13976;DHT22;7062;49.792;9.946;2022-10-01T09:22:30;11.30;99.90
13976;DHT22;7062;49.792;9.946;2022-10-01T09:27:26;11.40;99.90
13976;DHT22;7062;49.792;9.946;2022-10-01T09:29:57;11.40;99.90
13976;DHT22;7062;49.792;9.946;2022-10-01T09:32:37;11.40;99.90
13976;DHT22;7062;49.792;9.946;2022-10-01T09:35:19;11.50;99.90
13976;DHT22;7062;49.792;9.946;2022-10-01T09:43:05;11.50;99.90
13976;DHT22;7062;49.792;9.946;2022-10-01T09:45:35;11.50;99.90
13976;DHT22;7062;49.792;9.946;2022-10-01T09:48:12;11.50;99.90
13976;DHT22;7062;49.792;9.946;2022-10-01T09:50:44;11.40;99.90
13976;DHT22;7062;49.792;9.946;2022-10-01T09:53:19;11.50;99.90
13976;DHT22;7062;49.792;9.946;2022-10-01T09:55:52;11.40;99.90
13976;DHT22;7062;49.792;9.946;2022-10-01T09:58:25;11.30;99.90
13976;DHT22;7062;49.792;9.946;2022-10-01T10:00:53;11.30;99.90
13976;DHT22;7062;49.792;9.946;2022-10-01T10:03:29;11.30;99.90
13976;DHT22;7062;49.792;9.946;2022-10-01T10:05:58;11.30;99.90
13976;DHT22;7062;49.792;9.946;2022-10-01T10:08:35;11.20;99.90
13976;DHT22;7062;49.792;9.946;2022-10-01T10:11:05;11.20;99.90
13976;DHT22;7062;49.792;9.946;2022-10-01T10:13:38;11.20;99.90
13976;DHT22;7062;49.792;9.946;2022-10-01T10:19:25;11.20;99.90
13976;DHT22;7062;49.792;9.946;2022-10-01T10:22:08;11.30;99.90
13976;DHT22;7062;49.792;9.946;2022-10-01T10:24:34;11.40;99.90
13976;DHT22;7062;49.792;9.946;2022-10-01T10:27:04;11.60;99.90
13976;DHT22;7062;49.792;9.946;2022-10-01T10:29:31;11.60;99.90
13976;DHT22;7062;49.792;9.946;2022-10-01T10:31:58;11.80;99.90
13976;DHT22;7062;49.792;9.946;2022-10-01T10:34:36;11.90;99.90
13976;DHT22;7062;49.792;9.946;2022-10-01T10:37:15;12.10;99.90
13976;DHT22;7062;49.792;9.946;2022-10-01T10:39:45;12.20;99.90
13976;DHT22;7062;49.792;9.946;2022-10-01T10:42:14;12.20;99.90
13976;DHT22;7062;49.792;9.946;2022-10-01T10:44:42;12.20;99.90
13976;DHT22;7062;49.792;9.946;2022-10-01T10:47:12;11.90;99.90
13976;DHT22;7062;49.792;9.946;2022-10-01T10:52:26;11.90;99.90
13976;DHT22;7062;49.792;9.946;2022-10-01T10:54:55;11.80;99.90
13976;DHT22;7062;49.792;9.946;2022-10-01T10:57:30;11.70;99.90
13976;DHT22;7062;49.792;9.946;2022-10-01T10:59:57;11.70;99.90
13976;DHT22;7062;49.792;9.946;2022-10-01T11:02:25;11.80;99.90
13976;DHT22;7062;49.792;9.946;2022-10-01T11:04:54;11.90;99.90
13976;DHT22;7062;49.792;9.946;2022-10-01T11:07:21;11.90;99.90
13976;DHT22;7062;49.792;9.946;2022-10-01T11:12:41;11.90;99.90
13976;DHT22;7062;49.792;9.946;2022-10-01T11:19:05;12.00;99.90
13976;DHT22;7062;49.792;9.946;2022-10-01T11:30:02;14.60;99.90
13976;DHT22;7062;49.792;9.946;2022-10-01T11:49:26;13.60;99.90
13976;DHT22;7062;49.792;9.946;2022-10-01T11:52:21;13.60;99.90
13976;DHT22;7062;49.792;9.946;2022-10-01T11:55:01;13.60;99.90
13976;DHT22;7062;49.792;9.946;2022-10-01T11:57:54;13.50;99.90
13976;DHT22;7062;49.792;9.946;2022-10-01T12:00:41;13.30;99.90
13976;DHT22;7062;49.792;9.946;2022-10-01T12:03:16;13.50;99.90
13976;DHT22;7062;49.792;9.946;2022-10-01T12:05:43;13.60;99.90
13976;DHT22;7062;49.792;9.946;2022-10-01T12:08:30;13.90;99.90
13976;DHT22;7062;49.792;9.946;2022-10-01T12:11:19;14.30;99.90
13976;DHT22;7062;49.792;9.946;2022-10-01T12:14:10;14.40;99.90
13976;DHT22;7062;49.792;9.946;2022-10-01T12:17:08;14.00;99.90
13976;DHT22;7062;49.792;9.946;2022-10-01T12:19:40;13.60;99.90
13976;DHT22;7062;49.792;9.946;2022-10-01T12:22:17;13.50;99.90
13976;DHT22;7062;49.792;9.946;2022-10-01T12:24:46;13.30;99.90
13976;DHT22;7062;49.792;9.946;2022-10-01T12:38:31;13.30;99.90
13976;DHT22;7062;49.792;9.946;2022-10-01T12:43:48;13.10;99.90
13976;DHT22;7062;49.792;9.946;2022-10-01T12:48:54;13.10;99.90
13976;DHT22;7062;49.792;9.946;2022-10-01T12:57:29;13.80;99.90
13976;DHT22;7062;49.792;9.946;2022-10-01T13:00:25;13.20;99.90
13976;DHT22;7062;49.792;9.946;2022-10-01T13:09:30;15.40;99.90
13976;DHT22;7062;49.792;9.946;2022-10-01T13:14:54;15.10;99.90
13976;DHT22;7062;49.792;9.946;2022-10-01T13:17:34;15.50;99.90
13976;DHT22;7062;49.792;9.946;2022-10-01T13:20:14;14.90;99.90
13976;DHT22;7062;49.792;9.946;2022-10-01T13:23:38;14.70;99.90
13976;DHT22;7062;49.792;9.946;2022-10-01T13:26:07;14.70;99.90
13976;DHT22;7062;49.792;9.946;2022-10-01T13:29:02;15.00;99.90
13976;DHT22;7062;49.792;9.946;2022-10-01T13:31:36;15.90;99.90
13976;DHT22;7062;49.792;9.946;2022-10-01T13:34:02;16.10;99.90
13976;DHT22;7062;49.792;9.946;2022-10-01T13:36:33;15.70;99.90
13976;DHT22;7062;49.792;9.946;2022-10-01T13:39:00;15.50;99.90
13976;DHT22;7062;49.792;9.946;2022-10-01T13:41:30;15.40;99.90
13976;DHT22;7062;49.792;9.946;2022-10-01T13:47:03;15.60;99.90
13976;DHT22;7062;49.792;9.946;2022-10-01T13:49:35;15.70;99.90
13976;DHT22;7062;49.792;9.946;2022-10-01T13:52:02;15.70;99.90
13976;DHT22;7062;49.792;9.946;2022-10-01T13:54:38;15.40;99.90
13976;DHT22;7062;49.792;9.946;2022-10-01T14:00:20;15.70;99.90
13976;DHT22;7062;49.792;9.946;2022-10-01T14:03:23;16.50;99.90
13976;DHT22;7062;49.792;9.946;2022-10-01T14:05:55;17.90;99.90
13976;DHT22;7062;49.792;9.946;2022-10-01T14:08:31;17.20;99.90
13976;DHT22;7062;49.792;9.946;2022-10-01T14:13:52;15.50;99.90
13976;DHT22;7062;49.792;9.946;2022-10-01T14:16:41;15.30;99.90
13976;DHT22;7062;49.792;9.946;2022-10-01T14:19:08;16.00;99.90
13976;DHT22;7062;49.792;9.946;2022-10-01T14:30:08;19.20;99.90
13976;DHT22;7062;49.792;9.946;2022-10-01T14:35:59;18.40;99.90
13976;DHT22;7062;49.792;9.946;2022-10-01T14:38:27;17.90;99.90
13976;DHT22;7062;49.792;9.946;2022-10-01T14:40:53;18.70;99.90
13976;DHT22;7062;49.792;9.946;2022-10-01T14:43:19;19.20;99.90
13976;DHT22;7062;49.792;9.946;2022-10-01T14:48:26;19.40;99.90
13976;DHT22;7062;49.792;9.946;2022-10-01T14:50:56;19.10;99.90
13976;DHT22;7062;49.792;9.946;2022-10-01T14:53:24;18.30;99.90
13976;DHT22;7062;49.792;9.946;2022-10-01T14:55:54;17.10;99.90
13976;DHT22;7062;49.792;9.946;2022-10-01T14:58:37;16.70;99.90
13976;DHT22;7062;49.792;9.946;2022-10-01T15:01:04;17.00;99.90
13976;DHT22;7062;49.792;9.946;2022-10-01T15:03:41;16.70;99.90
13976;DHT22;7062;49.792;9.946;2022-10-01T15:06:13;16.30;99.90
13976;DHT22;7062;49.792;9.946;2022-10-01T15:08:44;16.10;99.90
13976;DHT22;7062;49.792;9.946;2022-10-01T15:11:21;15.70;99.90
13976;DHT22;7062;49.792;9.946;2022-10-01T15:13:49;15.60;99.90
13976;DHT22;7062;49.792;9.946;2022-10-01T15:21:57;15.30;99.90
13976;DHT22;7062;49.792;9.946;2022-10-01T15:24:35;15.20;99.90
13976;DHT22;7062;49.792;9.946;2022-10-01T15:27:02;15.00;99.90
13976;DHT22;7062;49.792;9.946;2022-10-01T15:29:28;14.90;99.90
13976;DHT22;7062;49.792;9.946;2022-10-01T15:31:56;14.90;99.90
13976;DHT22;7062;49.792;9.946;2022-10-01T15:34:24;14.80;99.90
13976;DHT22;7062;49.792;9.946;2022-10-01T15:36:51;14.90;99.90
13976;DHT22;7062;49.792;9.946;2022-10-01T15:39:34;14.90;99.90
13976;DHT22;7062;49.792;9.946;2022-10-01T15:42:22;14.90;99.90
13976;DHT22;7062;49.792;9.946;2022-10-01T15:47:52;14.70;99.90
13976;DHT22;7062;49.792;9.946;2022-10-01T15:50:30;14.70;99.90
13976;DHT22;7062;49.792;9.946;2022-10-01T15:53:03;14.70;99.90
13976;DHT22;7062;49.792;9.946;2022-10-01T15:55:48;14.70;99.90
13976;DHT22;7062;49.792;9.946;2022-10-01T15:58:20;14.70;99.90
13976;DHT22;7062;49.792;9.946;2022-10-01T16:03:33;14.60;99.90
13976;DHT22;7062;49.792;9.946;2022-10-01T16:06:01;14.60;99.90
13976;DHT22;7062;49.792;9.946;2022-10-01T16:08:43;14.60;99.90
13976;DHT22;7062;49.792;9.946;2022-10-01T16:13:43;14.50;99.90
13976;DHT22;7062;49.792;9.946;2022-10-01T16:18:39;14.40;99.90
13976;DHT22;7062;49.792;9.946;2022-10-01T16:21:07;14.50;99.90
13976;DHT22;7062;49.792;9.946;2022-10-01T16:23:45;14.40;99.90
13976;DHT22;7062;49.792;9.946;2022-10-01T16:26:33;14.40;99.90
13976;DHT22;7062;49.792;9.946;2022-10-01T16:29:03;14.40;99.90
13976;DHT22;7062;49.792;9.946;2022-10-01T16:31:31;14.40;99.90
13976;DHT22;7062;49.792;9.946;2022-10-01T16:33:57;14.40;99.90
13976;DHT22;7062;49.792;9.946;2022-10-01T16:36:22;14.40;99.90
13976;DHT22;7062;49.792;9.946;2022-10-01T16:38:49;14.40;99.90
13976;DHT22;7062;49.792;9.946;2022-10-01T16:41:19;14.40;99.90
13976;DHT22;7062;49.792;9.946;2022-10-01T16:43:47;14.40;99.90
13976;DHT22;7062;49.792;9.946;2022-10-01T16:46:14;14.40;99.90
13976;DHT22;7062;49.792;9.946;2022-10-01T16:48:40;14.40;99.90
13976;DHT22;7062;49.792;9.946;2022-10-01T16:51:05;14.40;99.90
13976;DHT22;7062;49.792;9.946;2022-10-01T16:53:31;14.40;99.90
13976;DHT22;7062;49.792;9.946;2022-10-01T16:55:57;14.40;99.90
13976;DHT22;7062;49.792;9.946;2022-10-01T16:58:23;14.40;99.90
13976;DHT22;7062;49.792;9.946;2022-10-01T17:00:49;14.40;99.90
13976;DHT22;7062;49.792;9.946;2022-10-01T17:03:17;14.30;99.90
13976;DHT22;7062;49.792;9.946;2022-10-01T17:05:43;14.40;99.90
13976;DHT22;7062;49.792;9.946;2022-10-01T17:08:09;14.30;99.90
13976;DHT22;7062;49.792;9.946;2022-10-01T17:10:42;14.30;99.90
13976;DHT22;7062;49.792;9.946;2022-10-01T17:13:10;14.40;99.90
13976;DHT22;7062;49.792;9.946;2022-10-01T17:15:36;14.30;99.90
13976;DHT22;7062;49.792;9.946;2022-10-01T17:18:02;14.30;99.90
13976;DHT22;7062;49.792;9.946;2022-10-01T17:20:28;14.30;99.90
13976;DHT22;7062;49.792;9.946;2022-10-01T17:22:55;14.30;99.90
13976;DHT22;7062;49.792;9.946;2022-10-01T17:25:23;14.30;99.90
13976;DHT22;7062;49.792;9.946;2022-10-01T17:27:49;14.30;99.90
13976;DHT22;7062;49.792;9.946;2022-10-01T17:30:15;14.40;99.90
13976;DHT22;7062;49.792;9.946;2022-10-01T17:32:41;14.30;99.90
13976;DHT22;7062;49.792;9.946;2022-10-01T17:35:12;14.40;99.90
13976;DHT22;7062;49.792;9.946;2022-10-01T17:37:39;14.30;99.90
13976;DHT22;7062;49.792;9.946;2022-10-01T17:40:06;14.40;99.90
13976;DHT22;7062;49.792;9.946;2022-10-01T17:42:32;14.40;99.90
13976;DHT22;7062;49.792;9.946;2022-10-01T17:45:00;14.40;99.90
13976;DHT22;7062;49.792;9.946;2022-10-01T17:47:26;14.40;99.90
13976;DHT22;7062;49.792;9.946;2022-10-01T17:49:51;14.40;99.90
13976;DHT22;7062;49.792;9.946;2022-10-01T17:52:17;14.30;99.90
13976;DHT22;7062;49.792;9.946;2022-10-01T17:54:43;14.40;99.90
13976;DHT22;7062;49.792;9.946;2022-10-01T17:57:09;14.40;99.90
13976;DHT22;7062;49.792;9.946;2022-10-01T17:59:38;14.30;99.90
13976;DHT22;7062;49.792;9.946;2022-10-01T18:02:05;14.30;99.90
13976;DHT22;7062;49.792;9.946;2022-10-01T18:04:31;14.30;99.90
13976;DHT22;7062;49.792;9.946;2022-10-01T18:06:57;14.30;99.90
13976;DHT22;7062;49.792;9.946;2022-10-01T18:09:23;14.20;99.90
13976;DHT22;7062;49.792;9.946;2022-10-01T18:11:50;14.20;99.90
13976;DHT22;7062;49.792;9.946;2022-10-01T18:14:15;14.20;99.90
13976;DHT22;7062;49.792;9.946;2022-10-01T18:16:41;14.20;99.90
13976;DHT22;7062;49.792;9.946;2022-10-01T18:19:09;14.20;99.90
13976;DHT22;7062;49.792;9.946;2022-10-01T18:21:35;14.10;99.90
13976;DHT22;7062;49.792;9.946;2022-10-01T18:24:01;14.10;99.90
13976;DHT22;7062;49.792;9.946;2022-10-01T18:26:26;14.10;99.90
13976;DHT22;7062;49.792;9.946;2022-10-01T18:28:52;14.10;99.90
13976;DHT22;7062;49.792;9.946;2022-10-01T18:31:22;14.20;99.90
13976;DHT22;7062;49.792;9.946;2022-10-01T18:33:55;14.10;99.90
13976;DHT22;7062;49.792;9.946;2022-10-01T18:42:00;14.10;99.90
13976;DHT22;7062;49.792;9.946;2022-10-01T18:44:26;14.10;99.90
13976;DHT22;7062;49.792;9.946;2022-10-01T18:52:59;14.10;99.90
13976;DHT22;7062;49.792;9.946;2022-10-01T18:58:40;14.10;99.90
13976;DHT22;7062;49.792;9.946;2022-10-01T19:31:57;14.00;99.90
13976;DHT22;7062;49.792;9.946;2022-10-01T19:34:36;14.00;99.90
13976;DHT22;7062;49.792;9.946;2022-10-01T19:37:12;14.00;99.90
13976;DHT22;7062;49.792;9.946;2022-10-01T19:39:40;14.00;99.90